sensor_id;sensor_type;location;lat;lon;timestamp;temperature;humidity
11536;DHT22;5824;49.336;8.652;2022-07-06T00:04:23;20.60;1.00
11536;DHT22;5824;49.336;8.652;2022-07-06T00:06:49;20.50;1.00
11536;DHT22;5824;49.336;8.652;2022-07-06T00:09:15;20.50;1.00
11536;DHT22;5824;49.336;8.652;2022-07-06T00:11:40;20.50;1.00
11536;DHT22;5824;49.336;8.652;2022-07-06T00:14:06;20.50;1.00
11536;DHT22;5824;49.336;8.652;2022-07-06T00:16:32;20.40;1.00
11536;DHT22;5824;49.336;8.652;2022-07-06T00:18:57;20.50;1.00
11536;DHT22;5824;49.336;8.652;2022-07-06T00:21:23;20.30;1.00
11536;DHT22;5824;49.336;8.652;2022-07-06T00:23:49;20.30;1.00
11536;DHT22;5824;49.336;8.652;2022-07-06T00:26:17;20.40;1.00
11536;DHT22;5824;49.336;8.652;2022-07-06T00:31:09;20.20;1.00
11536;DHT22;5824;49.336;8.652;2022-07-06T00:33:34;20.20;1.00
11536;DHT22;5824;49.336;8.652;2022-07-06T00:36:00;20.20;1.00
11536;DHT22;5824;49.336;8.652;2022-07-06T00:38:25;20.10;1.00
11536;DHT22;5824;49.336;8.652;2022-07-06T00:43:17;21.00;1.00
11536;DHT22;5824;49.336;8.652;2022-07-06T00:45:42;20.00;1.00
11536;DHT22;5824;49.336;8.652;2022-07-06T00:48:09;20.00;1.00
11536;DHT22;5824;49.336;8.652;2022-07-06T00:50:35;19.90;1.00
11536;DHT22;5824;49.336;8.652;2022-07-06T00:53:03;19.90;1.00
11536;DHT22;5824;49.336;8.652;2022-07-06T00:55:32;19.80;1.00
11536;DHT22;5824;49.336;8.652;2022-07-06T00:58:01;19.80;1.00
11536;DHT22;5824;49.336;8.652;2022-07-06T01:00:28;19.70;1.00
11536;DHT22;5824;49.336;8.652;2022-07-06T01:02:54;19.70;1.00
11536;DHT22;5824;49.336;8.652;2022-07-06T01:05:20;19.70;1.00
11536;DHT22;5824;49.336;8.652;2022-07-06T01:07:48;19.70;1.00
11536;DHT22;5824;49.336;8.652;2022-07-06T01:10:17;19.60;1.00
11536;DHT22;5824;49.336;8.652;2022-07-06T01:12:44;19.50;1.00
11536;DHT22;5824;49.336;8.652;2022-07-06T01:15:15;19.50;1.00
11536;DHT22;5824;49.336;8.652;2022-07-06T01:17:42;19.40;1.00
11536;DHT22;5824;49.336;8.652;2022-07-06T01:20:21;19.50;1.00
11536;DHT22;5824;49.336;8.652;2022-07-06T01:22:49;19.40;1.00
11536;DHT22;5824;49.336;8.652;2022-07-06T01:25:15;19.40;1.00
11536;DHT22;5824;49.336;8.652;2022-07-06T01:27:42;19.40;1.00
11536;DHT22;5824;49.336;8.652;2022-07-06T01:30:10;19.40;1.00
11536;DHT22;5824;49.336;8.652;2022-07-06T01:32:36;19.30;1.00
11536;DHT22;5824;49.336;8.652;2022-07-06T01:35:04;19.30;1.00
11536;DHT22;5824;49.336;8.652;2022-07-06T01:37:30;19.30;1.00
11536;DHT22;5824;49.336;8.652;2022-07-06T01:39:59;19.50;1.00
11536;DHT22;5824;49.336;8.652;2022-07-06T01:42:26;19.30;1.00
11536;DHT22;5824;49.336;8.652;2022-07-06T01:44:52;19.30;1.00
11536;DHT22;5824;49.336;8.652;2022-07-06T01:47:17;19.20;1.00
11536;DHT22;5824;49.336;8.652;2022-07-06T01:49:43;19.20;1.00
11536;DHT22;5824;49.336;8.652;2022-07-06T01:52:08;19.10;1.00
11536;DHT22;5824;49.336;8.652;2022-07-06T01:54:34;17.20;1.00
11536;DHT22;5824;49.336;8.652;2022-07-06T01:56:59;19.10;1.00
11536;DHT22;5824;49.336;8.652;2022-07-06T01:59:25;19.10;1.00
11536;DHT22;5824;49.336;8.652;2022-07-06T02:01:50;19.00;1.00
11536;DHT22;5824;49.336;8.652;2022-07-06T02:04:16;18.90;1.00
11536;DHT22;5824;49.336;8.652;2022-07-06T02:06:41;18.90;1.00
11536;DHT22;5824;49.336;8.652;2022-07-06T02:09:07;18.90;1.00
11536;DHT22;5824;49.336;8.652;2022-07-06T02:11:32;18.90;1.00
11536;DHT22;5824;49.336;8.652;2022-07-06T02:13:58;18.80;1.00
11536;DHT22;5824;49.336;8.652;2022-07-06T02:16:24;18.80;1.00
11536;DHT22;5824;49.336;8.652;2022-07-06T02:18:49;18.80;1.00
11536;DHT22;5824;49.336;8.652;2022-07-06T02:21:15;18.80;1.00
11536;DHT22;5824;49.336;8.652;2022-07-06T02:23:40;18.70;1.00
11536;DHT22;5824;49.336;8.652;2022-07-06T02:26:06;18.70;1.00
11536;DHT22;5824;49.336;8.652;2022-07-06T02:28:31;18.70;1.00
11536;DHT22;5824;49.336;8.652;2022-07-06T02:30:57;18.70;1.00
11536;DHT22;5824;49.336;8.652;2022-07-06T02:33:23;18.60;1.00
11536;DHT22;5824;49.336;8.652;2022-07-06T02:35:48;18.60;1.00
11536;DHT22;5824;49.336;8.652;2022-07-06T02:38:14;18.50;1.00
11536;DHT22;5824;49.336;8.652;2022-07-06T02:40:39;18.50;1.00
11536;DHT22;5824;49.336;8.652;2022-07-06T02:43:05;18.60;1.00
11536;DHT22;5824;49.336;8.652;2022-07-06T02:45:32;18.40;1.00
11536;DHT22;5824;49.336;8.652;2022-07-06T02:47:58;18.40;1.00
11536;DHT22;5824;49.336;8.652;2022-07-06T02:50:24;18.40;1.00
11536;DHT22;5824;49.336;8.652;2022-07-06T02:52:50;18.40;1.00
11536;DHT22;5824;49.336;8.652;2022-07-06T02:55:16;18.30;1.00
11536;DHT22;5824;49.336;8.652;2022-07-06T02:57:41;18.40;1.00
11536;DHT22;5824;49.336;8.652;2022-07-06T03:00:08;18.30;1.00
11536;DHT22;5824;49.336;8.652;2022-07-06T03:02:34;18.30;1.00
11536;DHT22;5824;49.336;8.652;2022-07-06T03:05:00;18.30;1.00
11536;DHT22;5824;49.336;8.652;2022-07-06T03:07:26;18.20;1.00
11536;DHT22;5824;49.336;8.652;2022-07-06T03:09:51;18.20;1.00
11536;DHT22;5824;49.336;8.652;2022-07-06T03:12:17;19.70;1.00
11536;DHT22;5824;49.336;8.652;2022-07-06T03:14:42;18.20;1.00
11536;DHT22;5824;49.336;8.652;2022-07-06T03:17:08;18.20;1.00
11536;DHT22;5824;49.336;8.652;2022-07-06T03:19:34;18.20;1.00
11536;DHT22;5824;49.336;8.652;2022-07-06T03:21:59;18.10;1.00
11536;DHT22;5824;49.336;8.652;2022-07-06T03:24:25;18.00;1.00
11536;DHT22;5824;49.336;8.652;2022-07-06T03:26:51;18.10;1.00
11536;DHT22;5824;49.336;8.652;2022-07-06T03:29:16;18.10;1.00
11536;DHT22;5824;49.336;8.652;2022-07-06T03:31:42;18.00;1.00
11536;DHT22;5824;49.336;8.652;2022-07-06T03:34:07;18.00;1.00
11536;DHT22;5824;49.336;8.652;2022-07-06T03:36:33;18.00;1.00
11536;DHT22;5824;49.336;8.652;2022-07-06T03:38:58;17.90;1.00
11536;DHT22;5824;49.336;8.652;2022-07-06T03:41:24;17.90;1.00
11536;DHT22;5824;49.336;8.652;2022-07-06T03:43:49;17.90;1.00
11536;DHT22;5824;49.336;8.652;2022-07-06T03:46:15;18.40;1.00
11536;DHT22;5824;49.336;8.652;2022-07-06T03:48:40;18.00;1.00
11536;DHT22;5824;49.336;8.652;2022-07-06T03:51:06;18.10;1.00
11536;DHT22;5824;49.336;8.652;2022-07-06T03:53:32;19.00;1.00
11536;DHT22;5824;49.336;8.652;2022-07-06T03:55:57;18.10;1.00
11536;DHT22;5824;49.336;8.652;2022-07-06T03:58:42;18.10;1.00
11536;DHT22;5824;49.336;8.652;2022-07-06T04:01:07;18.10;1.00
11536;DHT22;5824;49.336;8.652;2022-07-06T04:03:33;18.00;1.00
11536;DHT22;5824;49.336;8.652;2022-07-06T04:05:58;18.10;1.00
11536;DHT22;5824;49.336;8.652;2022-07-06T04:08:24;18.10;1.00
11536;DHT22;5824;49.336;8.652;2022-07-06T04:10:49;18.20;1.00
11536;DHT22;5824;49.336;8.652;2022-07-06T04:13:15;18.30;1.00
11536;DHT22;5824;49.336;8.652;2022-07-06T04:15:40;18.30;1.00
11536;DHT22;5824;49.336;8.652;2022-07-06T04:18:06;18.40;1.00
11536;DHT22;5824;49.336;8.652;2022-07-06T04:20:31;18.80;1.00
11536;DHT22;5824;49.336;8.652;2022-07-06T04:22:57;18.50;1.00
11536;DHT22;5824;49.336;8.652;2022-07-06T04:25:23;18.50;1.00
11536;DHT22;5824;49.336;8.652;2022-07-06T04:27:49;18.50;1.00
11536;DHT22;5824;49.336;8.652;2022-07-06T04:30:14;18.60;1.00
11536;DHT22;5824;49.336;8.652;2022-07-06T04:32:40;18.60;1.00
11536;DHT22;5824;49.336;8.652;2022-07-06T04:35:06;18.70;1.00
11536;DHT22;5824;49.336;8.652;2022-07-06T04:37:32;18.70;1.00
11536;DHT22;5824;49.336;8.652;2022-07-06T04:42:24;18.70;1.00
11536;DHT22;5824;49.336;8.652;2022-07-06T04:44:50;18.70;1.00
11536;DHT22;5824;49.336;8.652;2022-07-06T04:47:17;18.70;1.00
11536;DHT22;5824;49.336;8.652;2022-07-06T04:49:43;18.70;1.00
11536;DHT22;5824;49.336;8.652;2022-07-06T04:52:08;18.70;1.00
11536;DHT22;5824;49.336;8.652;2022-07-06T04:54:34;18.80;1.00
11536;DHT22;5824;49.336;8.652;2022-07-06T04:56:59;18.80;1.00
11536;DHT22;5824;49.336;8.652;2022-07-06T04:59:25;18.80;1.00
11536;DHT22;5824;49.336;8.652;2022-07-06T05:01:51;18.80;1.00
11536;DHT22;5824;49.336;8.652;2022-07-06T05:04:16;18.80;1.00
11536;DHT22;5824;49.336;8.652;2022-07-06T05:06:45;18.70;1.00
11536;DHT22;5824;49.336;8.652;2022-07-06T05:09:12;18.70;1.00
11536;DHT22;5824;49.336;8.652;2022-07-06T05:11:38;18.80;1.00
11536;DHT22;5824;49.336;8.652;2022-07-06T05:14:04;18.80;1.00
11536;DHT22;5824;49.336;8.652;2022-07-06T05:16:30;18.80;1.00
11536;DHT22;5824;49.336;8.652;2022-07-06T05:18:55;18.80;1.00
11536;DHT22;5824;49.336;8.652;2022-07-06T05:21:21;18.80;1.00
11536;DHT22;5824;49.336;8.652;2022-07-06T05:23:46;18.80;1.00
11536;DHT22;5824;49.336;8.652;2022-07-06T05:28:38;18.70;1.00
11536;DHT22;5824;49.336;8.652;2022-07-06T05:31:04;18.70;1.00
11536;DHT22;5824;49.336;8.652;2022-07-06T05:33:29;18.70;1.00
11536;DHT22;5824;49.336;8.652;2022-07-06T05:38:21;18.80;1.00
11536;DHT22;5824;49.336;8.652;2022-07-06T05:40:46;18.80;1.00
11536;DHT22;5824;49.336;8.652;2022-07-06T05:43:12;18.60;1.00
11536;DHT22;5824;49.336;8.652;2022-07-06T05:45:38;18.50;1.00
11536;DHT22;5824;49.336;8.652;2022-07-06T05:48:03;18.80;1.00
11536;DHT22;5824;49.336;8.652;2022-07-06T05:50:47;19.80;1.00
11536;DHT22;5824;49.336;8.652;2022-07-06T05:53:13;19.00;1.00
11536;DHT22;5824;49.336;8.652;2022-07-06T05:55:39;19.00;1.00
11536;DHT22;5824;49.336;8.652;2022-07-06T05:58:04;19.00;1.00
11536;DHT22;5824;49.336;8.652;2022-07-06T06:00:30;19.00;1.00
11536;DHT22;5824;49.336;8.652;2022-07-06T06:02:56;19.00;1.00
11536;DHT22;5824;49.336;8.652;2022-07-06T06:05:23;18.90;1.00
11536;DHT22;5824;49.336;8.652;2022-07-06T06:07:48;19.00;1.00
11536;DHT22;5824;49.336;8.652;2022-07-06T06:10:17;19.30;1.00
11536;DHT22;5824;49.336;8.652;2022-07-06T06:12:43;19.50;1.00
11536;DHT22;5824;49.336;8.652;2022-07-06T06:15:10;19.60;1.00
11536;DHT22;5824;49.336;8.652;2022-07-06T06:17:37;19.60;1.00
11536;DHT22;5824;49.336;8.652;2022-07-06T06:20:05;19.60;1.00
11536;DHT22;5824;49.336;8.652;2022-07-06T06:22:43;19.40;1.00
11536;DHT22;5824;49.336;8.652;2022-07-06T06:25:08;19.40;1.00
11536;DHT22;5824;49.336;8.652;2022-07-06T06:27:34;19.40;1.00
11536;DHT22;5824;49.336;8.652;2022-07-06T06:29:59;19.60;1.00
11536;DHT22;5824;49.336;8.652;2022-07-06T06:32:25;20.40;1.00
11536;DHT22;5824;49.336;8.652;2022-07-06T06:34:50;19.50;1.00
11536;DHT22;5824;49.336;8.652;2022-07-06T06:37:16;19.50;1.00
11536;DHT22;5824;49.336;8.652;2022-07-06T06:39:41;19.50;1.00
11536;DHT22;5824;49.336;8.652;2022-07-06T06:42:07;19.60;1.00
11536;DHT22;5824;49.336;8.652;2022-07-06T06:44:33;19.70;1.00
11536;DHT22;5824;49.336;8.652;2022-07-06T06:46:58;19.70;1.00
11536;DHT22;5824;49.336;8.652;2022-07-06T06:49:24;19.80;1.00
11536;DHT22;5824;49.336;8.652;2022-07-06T06:51:49;19.80;1.00
11536;DHT22;5824;49.336;8.652;2022-07-06T06:54:15;19.90;1.00
11536;DHT22;5824;49.336;8.652;2022-07-06T06:56:40;20.00;1.00
11536;DHT22;5824;49.336;8.652;2022-07-06T06:59:06;20.20;1.00
11536;DHT22;5824;49.336;8.652;2022-07-06T07:01:31;20.00;1.00
11536;DHT22;5824;49.336;8.652;2022-07-06T07:03:58;20.10;1.00
11536;DHT22;5824;49.336;8.652;2022-07-06T07:06:23;20.10;1.00
11536;DHT22;5824;49.336;8.652;2022-07-06T07:08:49;20.20;1.00
11536;DHT22;5824;49.336;8.652;2022-07-06T07:11:15;20.30;1.00
11536;DHT22;5824;49.336;8.652;2022-07-06T07:13:40;20.30;1.00
11536;DHT22;5824;49.336;8.652;2022-07-06T07:16:06;20.40;1.00
11536;DHT22;5824;49.336;8.652;2022-07-06T07:18:31;20.50;1.00
11536;DHT22;5824;49.336;8.652;2022-07-06T07:20:57;20.50;1.00
11536;DHT22;5824;49.336;8.652;2022-07-06T07:23:23;20.70;1.00
11536;DHT22;5824;49.336;8.652;2022-07-06T07:25:48;20.80;1.00
11536;DHT22;5824;49.336;8.652;2022-07-06T07:28:14;20.80;1.00
11536;DHT22;5824;49.336;8.652;2022-07-06T07:30:39;21.00;1.00
11536;DHT22;5824;49.336;8.652;2022-07-06T07:33:05;21.20;1.00
11536;DHT22;5824;49.336;8.652;2022-07-06T07:35:31;22.00;1.00
11536;DHT22;5824;49.336;8.652;2022-07-06T07:37:57;21.50;1.00
11536;DHT22;5824;49.336;8.652;2022-07-06T07:40:22;21.60;1.00
11536;DHT22;5824;49.336;8.652;2022-07-06T07:42:48;21.80;1.00
11536;DHT22;5824;49.336;8.652;2022-07-06T07:45:13;21.90;1.00
11536;DHT22;5824;49.336;8.652;2022-07-06T07:47:39;21.80;1.00
11536;DHT22;5824;49.336;8.652;2022-07-06T07:50:05;22.60;1.00
11536;DHT22;5824;49.336;8.652;2022-07-06T07:52:31;22.10;1.00
11536;DHT22;5824;49.336;8.652;2022-07-06T07:54:57;22.40;1.00
11536;DHT22;5824;49.336;8.652;2022-07-06T07:57:23;22.60;1.00
11536;DHT22;5824;49.336;8.652;2022-07-06T07:59:48;22.80;1.00
11536;DHT22;5824;49.336;8.652;2022-07-06T08:02:14;23.10;1.00
11536;DHT22;5824;49.336;8.652;2022-07-06T08:04:39;23.30;1.00
11536;DHT22;5824;49.336;8.652;2022-07-06T08:07:05;24.50;1.00
11536;DHT22;5824;49.336;8.652;2022-07-06T08:09:31;23.50;1.00
11536;DHT22;5824;49.336;8.652;2022-07-06T08:11:57;23.60;1.00
11536;DHT22;5824;49.336;8.652;2022-07-06T08:14:24;23.70;1.00
11536;DHT22;5824;49.336;8.652;2022-07-06T08:16:49;23.80;1.00
11536;DHT22;5824;49.336;8.652;2022-07-06T08:19:15;23.90;1.00
11536;DHT22;5824;49.336;8.652;2022-07-06T08:21:41;23.90;1.00
11536;DHT22;5824;49.336;8.652;2022-07-06T08:24:07;24.10;1.00
11536;DHT22;5824;49.336;8.652;2022-07-06T08:26:33;24.40;1.00
11536;DHT22;5824;49.336;8.652;2022-07-06T08:28:59;24.80;1.00
11536;DHT22;5824;49.336;8.652;2022-07-06T08:31:25;25.00;1.00
11536;DHT22;5824;49.336;8.652;2022-07-06T08:33:52;24.90;1.00
11536;DHT22;5824;49.336;8.652;2022-07-06T08:36:19;25.00;1.00
11536;DHT22;5824;49.336;8.652;2022-07-06T08:38:45;25.20;1.00
11536;DHT22;5824;49.336;8.652;2022-07-06T08:41:11;25.40;1.00
11536;DHT22;5824;49.336;8.652;2022-07-06T08:43:38;25.70;1.00
11536;DHT22;5824;49.336;8.652;2022-07-06T08:46:04;25.80;1.00
11536;DHT22;5824;49.336;8.652;2022-07-06T08:48:35;25.60;1.00
11536;DHT22;5824;49.336;8.652;2022-07-06T08:51:02;25.50;1.00
11536;DHT22;5824;49.336;8.652;2022-07-06T08:53:29;25.10;1.00
11536;DHT22;5824;49.336;8.652;2022-07-06T08:55:54;25.80;1.00
11536;DHT22;5824;49.336;8.652;2022-07-06T08:58:24;26.20;1.00
11536;DHT22;5824;49.336;8.652;2022-07-06T09:00:49;26.70;1.00
11536;DHT22;5824;49.336;8.652;2022-07-06T09:03:15;26.70;1.00
11536;DHT22;5824;49.336;8.652;2022-07-06T09:05:45;26.50;1.00
11536;DHT22;5824;49.336;8.652;2022-07-06T09:08:11;26.40;1.00
11536;DHT22;5824;49.336;8.652;2022-07-06T09:10:37;26.70;1.00
11536;DHT22;5824;49.336;8.652;2022-07-06T09:13:07;27.30;1.00
11536;DHT22;5824;49.336;8.652;2022-07-06T09:15:33;28.00;1.00
11536;DHT22;5824;49.336;8.652;2022-07-06T09:17:59;28.00;1.00
11536;DHT22;5824;49.336;8.652;2022-07-06T09:20:25;28.20;1.00
11536;DHT22;5824;49.336;8.652;2022-07-06T09:22:50;28.40;1.00
11536;DHT22;5824;49.336;8.652;2022-07-06T09:25:19;29.00;1.00
11536;DHT22;5824;49.336;8.652;2022-07-06T09:27:46;29.80;1.00
11536;DHT22;5824;49.336;8.652;2022-07-06T09:30:13;30.30;1.00
11536;DHT22;5824;49.336;8.652;2022-07-06T09:32:44;30.40;1.00
11536;DHT22;5824;49.336;8.652;2022-07-06T09:35:37;31.40;1.00
11536;DHT22;5824;49.336;8.652;2022-07-06T09:40:36;31.50;1.00
11536;DHT22;5824;49.336;8.652;2022-07-06T09:43:14;31.10;1.00
11536;DHT22;5824;49.336;8.652;2022-07-06T09:45:45;31.40;1.00
11536;DHT22;5824;49.336;8.652;2022-07-06T09:48:12;31.70;1.00
11536;DHT22;5824;49.336;8.652;2022-07-06T09:50:44;32.60;1.00
11536;DHT22;5824;49.336;8.652;2022-07-06T09:53:11;33.20;1.00
11536;DHT22;5824;49.336;8.652;2022-07-06T09:55:37;33.90;1.00
11536;DHT22;5824;49.336;8.652;2022-07-06T09:58:03;33.90;1.00
11536;DHT22;5824;49.336;8.652;2022-07-06T10:00:29;34.20;1.00
11536;DHT22;5824;49.336;8.652;2022-07-06T10:02:55;34.80;1.00
11536;DHT22;5824;49.336;8.652;2022-07-06T10:05:21;34.40;1.00
11536;DHT22;5824;49.336;8.652;2022-07-06T10:07:55;34.50;1.00
11536;DHT22;5824;49.336;8.652;2022-07-06T10:10:23;34.90;1.00
11536;DHT22;5824;49.336;8.652;2022-07-06T10:12:50;33.60;1.00
11536;DHT22;5824;49.336;8.652;2022-07-06T10:15:17;33.90;1.00
11536;DHT22;5824;49.336;8.652;2022-07-06T10:17:44;34.40;1.00
11536;DHT22;5824;49.336;8.652;2022-07-06T10:20:11;35.00;1.00
11536;DHT22;5824;49.336;8.652;2022-07-06T10:22:37;34.70;1.00
11536;DHT22;5824;49.336;8.652;2022-07-06T10:25:04;34.50;1.00
11536;DHT22;5824;49.336;8.652;2022-07-06T10:27:32;34.40;1.00
11536;DHT22;5824;49.336;8.652;2022-07-06T10:29:57;34.70;1.00
11536;DHT22;5824;49.336;8.652;2022-07-06T10:32:24;34.90;1.00
11536;DHT22;5824;49.336;8.652;2022-07-06T10:34:50;35.30;1.00
11536;DHT22;5824;49.336;8.652;2022-07-06T10:37:23;35.50;1.00
11536;DHT22;5824;49.336;8.652;2022-07-06T10:39:51;35.30;1.00
11536;DHT22;5824;49.336;8.652;2022-07-06T10:42:56;35.00;1.00
11536;DHT22;5824;49.336;8.652;2022-07-06T10:48:17;34.20;1.00
11536;DHT22;5824;49.336;8.652;2022-07-06T10:50:53;34.90;1.00
11536;DHT22;5824;49.336;8.652;2022-07-06T10:53:27;34.90;1.00
11536;DHT22;5824;49.336;8.652;2022-07-06T10:55:55;33.80;1.00
11536;DHT22;5824;49.336;8.652;2022-07-06T11:01:12;34.00;1.00
11536;DHT22;5824;49.336;8.652;2022-07-06T11:03:44;34.20;1.00
11536;DHT22;5824;49.336;8.652;2022-07-06T11:06:19;34.20;1.00
11536;DHT22;5824;49.336;8.652;2022-07-06T11:14:15;35.10;1.00
11536;DHT22;5824;49.336;8.652;2022-07-06T11:19:23;34.60;1.00
11536;DHT22;5824;49.336;8.652;2022-07-06T11:22:06;34.40;1.00
11536;DHT22;5824;49.336;8.652;2022-07-06T11:24:33;34.40;1.00
11536;DHT22;5824;49.336;8.652;2022-07-06T11:27:00;35.00;1.00
11536;DHT22;5824;49.336;8.652;2022-07-06T11:29:27;35.50;1.00
11536;DHT22;5824;49.336;8.652;2022-07-06T11:31:55;36.30;1.00
11536;DHT22;5824;49.336;8.652;2022-07-06T11:34:26;37.30;1.00
11536;DHT22;5824;49.336;8.652;2022-07-06T11:36:56;37.90;1.00
11536;DHT22;5824;49.336;8.652;2022-07-06T11:39:22;36.80;1.00
11536;DHT22;5824;49.336;8.652;2022-07-06T11:41:47;36.00;1.00
11536;DHT22;5824;49.336;8.652;2022-07-06T11:46:39;37.10;1.00
11536;DHT22;5824;49.336;8.652;2022-07-06T11:49:09;38.30;1.00
11536;DHT22;5824;49.336;8.652;2022-07-06T11:51:37;37.30;1.00
11536;DHT22;5824;49.336;8.652;2022-07-06T11:54:11;36.00;1.00
11536;DHT22;5824;49.336;8.652;2022-07-06T11:56:38;36.10;1.00
11536;DHT22;5824;49.336;8.652;2022-07-06T11:59:03;37.20;1.00
11536;DHT22;5824;49.336;8.652;2022-07-06T12:01:30;37.60;1.00
11536;DHT22;5824;49.336;8.652;2022-07-06T12:04:01;37.50;1.00
11536;DHT22;5824;49.336;8.652;2022-07-06T12:06:30;37.60;1.00
11536;DHT22;5824;49.336;8.652;2022-07-06T12:08:58;38.00;1.00
11536;DHT22;5824;49.336;8.652;2022-07-06T12:11:28;38.10;1.00
11536;DHT22;5824;49.336;8.652;2022-07-06T12:13:55;37.60;1.00
11536;DHT22;5824;49.336;8.652;2022-07-06T12:16:22;37.10;1.00
11536;DHT22;5824;49.336;8.652;2022-07-06T12:18:53;38.10;1.00
11536;DHT22;5824;49.336;8.652;2022-07-06T12:21:20;38.80;1.00
11536;DHT22;5824;49.336;8.652;2022-07-06T12:23:50;39.50;1.00
11536;DHT22;5824;49.336;8.652;2022-07-06T12:26:19;40.20;1.00
11536;DHT22;5824;49.336;8.652;2022-07-06T12:28:46;37.80;1.00
11536;DHT22;5824;49.336;8.652;2022-07-06T12:31:31;37.80;1.00
11536;DHT22;5824;49.336;8.652;2022-07-06T12:33:57;37.50;1.00
11536;DHT22;5824;49.336;8.652;2022-07-06T12:36:23;37.30;1.00
11536;DHT22;5824;49.336;8.652;2022-07-06T12:38:48;37.40;1.00
11536;DHT22;5824;49.336;8.652;2022-07-06T12:41:32;37.60;1.00
11536;DHT22;5824;49.336;8.652;2022-07-06T12:44:05;38.20;1.00
11536;DHT22;5824;49.336;8.652;2022-07-06T12:46:33;38.10;1.00
11536;DHT22;5824;49.336;8.652;2022-07-06T12:49:01;39.00;1.00
11536;DHT22;5824;49.336;8.652;2022-07-06T12:51:27;39.00;1.00
11536;DHT22;5824;49.336;8.652;2022-07-06T12:54:11;38.50;1.00
11536;DHT22;5824;49.336;8.652;2022-07-06T12:56:36;38.30;1.00
11536;DHT22;5824;49.336;8.652;2022-07-06T12:59:02;38.50;1.00
11536;DHT22;5824;49.336;8.652;2022-07-06T13:01:27;38.20;1.00
11536;DHT22;5824;49.336;8.652;2022-07-06T13:03:57;38.40;1.00
11536;DHT22;5824;49.336;8.652;2022-07-06T13:06:34;39.10;1.00
11536;DHT22;5824;49.336;8.652;2022-07-06T13:08:59;39.70;1.00
11536;DHT22;5824;49.336;8.652;2022-07-06T13:11:25;40.00;1.00
11536;DHT22;5824;49.336;8.652;2022-07-06T13:13:51;40.20;1.00
11536;DHT22;5824;49.336;8.652;2022-07-06T13:16:16;39.90;1.00
11536;DHT22;5824;49.336;8.652;2022-07-06T13:18:42;39.90;1.00
11536;DHT22;5824;49.336;8.652;2022-07-06T13:21:08;40.00;1.00
11536;DHT22;5824;49.336;8.652;2022-07-06T13:23:33;39.40;1.00
11536;DHT22;5824;49.336;8.652;2022-07-06T13:25:59;39.80;1.00
11536;DHT22;5824;49.336;8.652;2022-07-06T13:28:24;40.10;1.00
11536;DHT22;5824;49.336;8.652;2022-07-06T13:30:50;40.00;1.00
11536;DHT22;5824;49.336;8.652;2022-07-06T13:33:15;39.70;1.00
11536;DHT22;5824;49.336;8.652;2022-07-06T13:35:41;39.70;1.00
11536;DHT22;5824;49.336;8.652;2022-07-06T13:38:06;39.90;1.00
11536;DHT22;5824;49.336;8.652;2022-07-06T13:40:32;40.50;1.00
11536;DHT22;5824;49.336;8.652;2022-07-06T13:43:00;39.70;1.00
11536;DHT22;5824;49.336;8.652;2022-07-06T13:45:25;40.40;1.00
11536;DHT22;5824;49.336;8.652;2022-07-06T13:47:51;40.50;1.00
11536;DHT22;5824;49.336;8.652;2022-07-06T13:50:16;40.90;1.00
11536;DHT22;5824;49.336;8.652;2022-07-06T13:52:42;40.90;1.00
11536;DHT22;5824;49.336;8.652;2022-07-06T13:55:08;39.70;1.00
11536;DHT22;5824;49.336;8.652;2022-07-06T13:57:34;39.50;1.00
11536;DHT22;5824;49.336;8.652;2022-07-06T14:00:00;39.50;1.00
11536;DHT22;5824;49.336;8.652;2022-07-06T14:02:25;39.90;1.00
11536;DHT22;5824;49.336;8.652;2022-07-06T14:04:51;40.50;1.00
11536;DHT22;5824;49.336;8.652;2022-07-06T14:07:17;40.20;1.00
11536;DHT22;5824;49.336;8.652;2022-07-06T14:09:42;39.50;1.00
11536;DHT22;5824;49.336;8.652;2022-07-06T14:12:08;39.20;1.00
11536;DHT22;5824;49.336;8.652;2022-07-06T14:14:34;38.50;1.00
11536;DHT22;5824;49.336;8.652;2022-07-06T14:16:59;38.40;1.00
11536;DHT22;5824;49.336;8.652;2022-07-06T14:19:25;38.70;1.00
11536;DHT22;5824;49.336;8.652;2022-07-06T14:21:51;38.70;1.00
11536;DHT22;5824;49.336;8.652;2022-07-06T14:24:17;38.50;1.00
11536;DHT22;5824;49.336;8.652;2022-07-06T14:26:42;38.50;1.00
11536;DHT22;5824;49.336;8.652;2022-07-06T14:29:08;38.60;1.00
11536;DHT22;5824;49.336;8.652;2022-07-06T14:31:33;37.70;1.00
11536;DHT22;5824;49.336;8.652;2022-07-06T14:36:25;35.20;1.00
11536;DHT22;5824;49.336;8.652;2022-07-06T14:38:50;35.20;1.00
11536;DHT22;5824;49.336;8.652;2022-07-06T14:41:16;35.30;1.00
11536;DHT22;5824;49.336;8.652;2022-07-06T14:43:41;35.30;1.00
11536;DHT22;5824;49.336;8.652;2022-07-06T14:46:07;35.50;1.00
11536;DHT22;5824;49.336;8.652;2022-07-06T14:48:32;35.10;1.00
11536;DHT22;5824;49.336;8.652;2022-07-06T14:50:58;34.20;1.00
11536;DHT22;5824;49.336;8.652;2022-07-06T14:53:24;33.40;1.00
11536;DHT22;5824;49.336;8.652;2022-07-06T14:55:49;33.00;1.00
11536;DHT22;5824;49.336;8.652;2022-07-06T14:58:15;33.00;1.00
11536;DHT22;5824;49.336;8.652;2022-07-06T15:00:45;32.70;1.00
11536;DHT22;5824;49.336;8.652;2022-07-06T15:03:11;32.50;1.00
11536;DHT22;5824;49.336;8.652;2022-07-06T15:05:37;31.80;1.00
11536;DHT22;5824;49.336;8.652;2022-07-06T15:08:03;31.10;1.00
11536;DHT22;5824;49.336;8.652;2022-07-06T15:10:30;30.60;1.00
11536;DHT22;5824;49.336;8.652;2022-07-06T15:12:55;30.10;1.00
11536;DHT22;5824;49.336;8.652;2022-07-06T15:15:21;29.50;1.00
11536;DHT22;5824;49.336;8.652;2022-07-06T15:17:46;29.50;1.00
11536;DHT22;5824;49.336;8.652;2022-07-06T15:20:12;29.10;1.00
11536;DHT22;5824;49.336;8.652;2022-07-06T15:22:38;29.30;1.00
11536;DHT22;5824;49.336;8.652;2022-07-06T15:25:03;29.00;1.00
11536;DHT22;5824;49.336;8.652;2022-07-06T15:27:29;28.90;1.00
11536;DHT22;5824;49.336;8.652;2022-07-06T15:29:55;28.90;1.00
11536;DHT22;5824;49.336;8.652;2022-07-06T15:32:21;28.60;1.00
11536;DHT22;5824;49.336;8.652;2022-07-06T15:34:48;28.60;1.00
11536;DHT22;5824;49.336;8.652;2022-07-06T15:39:39;27.90;1.00
11536;DHT22;5824;49.336;8.652;2022-07-06T15:42:06;27.90;1.00
11536;DHT22;5824;49.336;8.652;2022-07-06T15:44:31;27.90;1.00
11536;DHT22;5824;49.336;8.652;2022-07-06T15:46:59;27.70;1.00
11536;DHT22;5824;49.336;8.652;2022-07-06T15:49:28;27.50;1.00
11536;DHT22;5824;49.336;8.652;2022-07-06T15:54:19;27.60;1.00
11536;DHT22;5824;49.336;8.652;2022-07-06T15:56:45;27.60;1.00
11536;DHT22;5824;49.336;8.652;2022-07-06T16:01:36;27.50;1.00
11536;DHT22;5824;49.336;8.652;2022-07-06T16:04:02;27.50;1.00
11536;DHT22;5824;49.336;8.652;2022-07-06T16:06:27;27.60;1.00
11536;DHT22;5824;49.336;8.652;2022-07-06T16:08:53;27.40;1.00
11536;DHT22;5824;49.336;8.652;2022-07-06T16:11:18;27.20;1.00
11536;DHT22;5824;49.336;8.652;2022-07-06T16:13:45;27.10;1.00
11536;DHT22;5824;49.336;8.652;2022-07-06T16:16:11;26.90;1.00
11536;DHT22;5824;49.336;8.652;2022-07-06T16:18:37;26.90;1.00
11536;DHT22;5824;49.336;8.652;2022-07-06T16:21:02;26.90;1.00
11536;DHT22;5824;49.336;8.652;2022-07-06T16:23:28;27.00;1.00
11536;DHT22;5824;49.336;8.652;2022-07-06T16:25:54;26.90;1.00
11536;DHT22;5824;49.336;8.652;2022-07-06T16:28:19;26.80;1.00
11536;DHT22;5824;49.336;8.652;2022-07-06T16:30:45;26.60;1.00
11536;DHT22;5824;49.336;8.652;2022-07-06T16:33:10;26.60;1.00
11536;DHT22;5824;49.336;8.652;2022-07-06T16:35:38;26.50;1.00
11536;DHT22;5824;49.336;8.652;2022-07-06T16:38:07;26.50;1.00
11536;DHT22;5824;49.336;8.652;2022-07-06T16:40:32;26.50;1.00
11536;DHT22;5824;49.336;8.652;2022-07-06T16:42:58;26.40;1.00